Time;durP1;ratioP1;P1;durP2;ratioP2;P2;SDS_P1;SDS_P2;PMS_P1;PMS_P2;Temp;Humidity;BMP_temperature;BMP_pressure;BME280_temperature;BME280_humidity;BME280_pressure;Samples;Min_cycle;Max_cycle;Signal;HPM_P1;HPM_P2
2021/07/27 00:01:32;;;;;;;7.90;7.30;;;18.50;99.90;;;;;;5094813;28;20446;-75
2021/07/27 00:03:59;;;;;;;8.20;7.60;;;18.50;99.90;;;;;;5094626;28;20446;-75
2021/07/27 00:06:26;;;;;;;8.67;8.07;;;18.40;99.90;;;;;;5094722;28;20494;-75
2021/07/27 00:08:54;;;;;;;8.53;7.83;;;18.40;99.90;;;;;;5094659;28;20465;-74
2021/07/27 00:11:21;;;;;;;8.63;7.83;;;18.40;99.90;;;;;;5094584;28;20754;-75
2021/07/27 00:13:47;;;;;;;8.13;7.43;;;18.40;99.90;;;;;;5094118;28;20774;-75
2021/07/27 00:16:14;;;;;;;9.70;8.27;;;18.30;99.90;;;;;;5094450;28;20466;-75
2021/07/27 00:18:41;;;;;;;9.27;8.47;;;18.30;99.90;;;;;;5094498;28;20446;-75
2021/07/27 00:21:08;;;;;;;8.67;7.87;;;18.30;99.90;;;;;;5094118;28;20520;-75
2021/07/27 00:23:35;;;;;;;8.07;7.37;;;18.30;99.90;;;;;;5094180;28;20469;-75
2021/07/27 00:26:05;;;;;;;8.43;7.70;;;18.30;99.90;;;;;;5094354;28;20450;-75
2021/07/27 00:28:32;;;;;;;8.33;7.53;;;18.20;99.90;;;;;;5094230;28;20465;-74
2021/07/27 00:30:59;;;;;;;10.33;8.63;;;18.20;99.90;;;;;;5094176;28;20446;-75
2021/07/27 00:33:25;;;;;;;10.70;9.20;;;18.20;99.90;;;;;;5093776;28;20446;-75
2021/07/27 00:35:52;;;;;;;8.60;7.80;;;18.10;99.90;;;;;;5094188;28;20964;-74
2021/07/27 00:38:20;;;;;;;9.97;7.70;;;18.10;99.90;;;;;;5094211;28;20468;-75
2021/07/27 00:40:48;;;;;;;10.00;9.00;;;18.10;99.90;;;;;;5094215;28;20472;-75
2021/07/27 00:43:17;;;;;;;8.13;7.40;;;18.00;99.90;;;;;;5093769;28;20465;-74
2021/07/27 00:45:44;;;;;;;9.17;8.27;;;18.00;99.90;;;;;;5094060;28;20446;-75
2021/07/27 00:48:11;;;;;;;8.90;8.10;;;18.00;99.90;;;;;;5093833;28;20482;-75
2021/07/27 00:50:39;;;;;;;9.47;8.57;;;18.00;99.90;;;;;;5093716;28;20446;-74
2021/07/27 00:53:06;;;;;;;10.13;8.10;;;18.00;99.90;;;;;;5093637;28;20454;-74
2021/07/27 00:55:34;;;;;;;9.13;8.17;;;17.90;99.90;;;;;;5094036;28;20477;-75
2021/07/27 00:58:01;;;;;;;10.97;7.90;;;17.90;99.90;;;;;;5092630;28;20972;-75
2021/07/27 01:00:29;;;;;;;9.03;8.13;;;17.90;99.90;;;;;;5094136;28;20945;-75
2021/07/27 01:02:56;;;;;;;9.70;8.70;;;17.80;99.90;;;;;;5094052;28;20442;-74
2021/07/27 01:05:24;;;;;;;10.33;9.27;;;17.80;99.90;;;;;;5094527;28;20449;-75
2021/07/27 01:07:51;;;;;;;11.07;9.27;;;17.80;99.90;;;;;;5093970;28;20474;-74
2021/07/27 01:10:18;;;;;;;10.20;8.97;;;17.80;99.90;;;;;;5094154;28;20511;-75
2021/07/27 01:12:45;;;;;;;11.10;10.03;;;17.80;99.90;;;;;;5094168;28;20442;-76
2021/07/27 01:15:13;;;;;;;11.07;10.03;;;17.80;99.90;;;;;;5093838;28;20450;-74
2021/07/27 01:17:41;;;;;;;9.70;8.90;;;17.80;99.90;;;;;;5094088;28;20458;-75
2021/07/27 01:20:15;;;;;;;11.23;9.83;;;17.80;99.90;;;;;;5094050;28;20450;-74
2021/07/27 01:39:24;;;;;;;13.00;11.10;;;17.80;99.90;;;;;;5093480;28;20492;-75
2021/07/27 01:42:11;;;;;;;13.13;11.00;;;17.90;99.90;;;;;;5093577;28;20846;-76
2021/07/27 01:44:44;;;;;;;14.37;12.30;;;17.90;99.90;;;;;;5093532;28;20492;-76
2021/07/27 01:47:12;;;;;;;12.80;10.70;;;17.90;99.90;;;;;;5093348;28;20960;-76
2021/07/27 01:49:39;;;;;;;13.33;11.40;;;17.80;99.90;;;;;;5093878;28;20446;-76
2021/07/27 01:52:09;;;;;;;13.50;12.23;;;17.80;99.90;;;;;;5093049;28;20466;-76
2021/07/27 01:54:55;;;;;;;14.20;11.17;;;17.80;99.90;;;;;;5093597;28;20446;-75
2021/07/27 01:57:24;;;;;;;12.93;11.30;;;17.80;99.90;;;;;;5093393;28;20466;-75
2021/07/27 02:00:09;;;;;;;13.17;11.77;;;17.70;99.90;;;;;;5093813;28;20438;-76
2021/07/27 02:02:35;;;;;;;15.67;13.63;;;17.70;99.90;;;;;;5093274;28;20860;-76
2021/07/27 02:05:02;;;;;;;17.43;12.90;;;17.60;99.90;;;;;;5093339;28;20449;-76
2021/07/27 02:07:29;;;;;;;17.20;13.53;;;17.60;99.90;;;;;;5093022;28;20887;-76
2021/07/27 02:10:03;;;;;;;17.40;13.83;;;17.60;99.90;;;;;;5092517;28;20442;-73
2021/07/27 02:12:36;;;;;;;15.67;13.93;;;17.60;99.90;;;;;;5092071;28;20442;-73
2021/07/27 02:15:20;;;;;;;19.27;14.97;;;17.60;99.90;;;;;;5092657;28;20456;-72
2021/07/27 02:17:47;;;;;;;17.27;15.10;;;17.60;99.90;;;;;;5092268;28;20467;-72
2021/07/27 02:20:15;;;;;;;19.90;16.50;;;17.70;99.90;;;;;;5092423;28;21127;-73
2021/07/27 02:22:42;;;;;;;20.97;14.33;;;17.80;99.90;;;;;;5092355;28;20442;-73
2021/07/27 02:25:11;;;;;;;17.90;15.60;;;17.90;99.90;;;;;;5092615;28;20798;-72
2021/07/27 02:27:38;;;;;;;15.70;13.90;;;17.90;99.90;;;;;;5092124;28;20505;-73
2021/07/27 02:30:06;;;;;;;19.23;17.43;;;18.00;99.90;;;;;;5092465;28;20443;-72
2021/07/27 02:32:33;;;;;;;18.77;14.53;;;17.90;99.90;;;;;;5091868;28;20460;-73
2021/07/27 02:35:00;;;;;;;17.43;14.93;;;17.90;99.90;;;;;;5092229;28;20457;-73
2021/07/27 02:37:27;;;;;;;19.90;16.57;;;17.90;99.90;;;;;;5091925;28;20466;-73
2021/07/27 02:39:54;;;;;;;20.60;17.00;;;17.90;99.90;;;;;;5091987;28;20442;-74
2021/07/27 02:42:23;;;;;;;21.50;16.70;;;17.90;99.90;;;;;;5092100;28;20449;-73
2021/07/27 02:44:50;;;;;;;18.47;16.53;;;17.90;99.90;;;;;;5092082;28;20489;-74
2021/07/27 02:47:17;;;;;;;19.00;17.00;;;18.00;99.90;;;;;;5091779;28;20487;-73
2021/07/27 02:49:43;;;;;;;19.77;16.73;;;18.00;99.90;;;;;;5093744;28;20453;-77
2021/07/27 02:52:10;;;;;;;18.93;16.93;;;18.00;99.90;;;;;;5093513;28;20568;-78
2021/07/27 02:54:38;;;;;;;20.57;14.80;;;17.90;99.90;;;;;;5094077;28;20461;-75
2021/07/27 02:57:05;;;;;;;20.97;16.23;;;17.90;99.90;;;;;;5093295;28;20466;-76
2021/07/27 02:59:33;;;;;;;26.60;16.60;;;17.90;99.90;;;;;;5092971;28;20446;-76
2021/07/27 03:02:00;;;;;;;22.10;17.40;;;17.80;99.90;;;;;;5092358;28;20450;-75
2021/07/27 03:04:26;;;;;;;21.27;16.37;;;17.90;99.90;;;;;;5093053;28;20450;-75
2021/07/27 03:06:53;;;;;;;21.37;15.57;;;17.90;99.90;;;;;;5095511;22;20479;-69
2021/07/27 03:09:24;;;;;;;20.33;17.60;;;17.90;99.90;;;;;;5071369;28;20506;-70
2021/07/27 03:11:51;;;;;;;22.10;18.10;;;17.90;99.90;;;;;;5071409;28;20439;-70
2021/07/27 03:14:18;;;;;;;20.40;17.83;;;17.90;99.90;;;;;;5071309;28;20451;-70
2021/07/27 03:16:46;;;;;;;21.20;18.00;;;17.90;99.90;;;;;;5071582;28;20479;-70
2021/07/27 03:19:13;;;;;;;20.83;17.50;;;17.80;99.90;;;;;;5071312;28;20446;-70
2021/07/27 03:21:39;;;;;;;26.00;21.60;;;17.80;99.90;;;;;;5071513;28;20443;-70
2021/07/27 03:24:06;;;;;;;26.70;22.23;;;17.70;99.90;;;;;;5071279;28;20439;-70
2021/07/27 03:26:33;;;;;;;23.43;20.63;;;17.70;99.90;;;;;;5071383;28;20478;-70
2021/07/27 03:29:00;;;;;;;30.87;26.10;;;17.70;99.90;;;;;;5071233;28;20562;-69
2021/07/27 03:31:29;;;;;;;27.17;23.87;;;17.60;99.90;;;;;;5070850;28;20782;-70
2021/07/27 03:33:57;;;;;;;33.87;24.50;;;17.70;99.90;;;;;;5070946;28;20447;-70
2021/07/27 03:36:24;;;;;;;32.20;26.97;;;17.70;99.90;;;;;;5071156;28;20566;-70
2021/07/27 03:38:51;;;;;;;29.70;24.47;;;17.70;99.90;;;;;;5071336;28;20447;-69
2021/07/27 03:41:18;;;;;;;27.87;24.80;;;17.80;99.90;;;;;;5071597;28;20443;-69
2021/07/27 03:43:45;;;;;;;34.17;25.23;;;17.90;99.90;;;;;;5072027;28;20486;-69
2021/07/27 03:46:12;;;;;;;31.97;28.03;;;18.00;99.90;;;;;;5072449;28;20921;-70
2021/07/27 03:48:38;;;;;;;30.20;24.70;;;18.00;99.90;;;;;;5072357;28;20482;-70
2021/07/27 03:51:06;;;;;;;30.50;25.13;;;18.00;99.90;;;;;;5071806;28;20439;-70
2021/07/27 03:53:33;;;;;;;30.93;24.20;;;18.10;99.90;;;;;;5071817;28;20439;-70
2021/07/27 03:56:00;;;;;;;30.17;23.23;;;18.20;99.90;;;;;;5071731;28;20844;-70
2021/07/27 03:58:26;;;;;;;25.50;21.63;;;18.20;99.90;;;;;;5072118;28;20450;-70
2021/07/27 04:00:53;;;;;;;24.70;22.00;;;18.30;99.90;;;;;;5071634;28;20443;-69
2021/07/27 04:03:20;;;;;;;23.47;21.07;;;18.30;99.90;;;;;;5072437;28;20447;-69
2021/07/27 04:05:46;;;;;;;21.27;19.07;;;18.30;99.90;;;;;;5071906;28;20470;-69
2021/07/27 04:08:14;;;;;;;24.93;20.30;;;18.30;99.90;;;;;;5071948;28;20474;-69
2021/07/27 04:10:41;;;;;;;22.17;19.37;;;18.30;99.90;;;;;;5071747;28;20455;-69
2021/07/27 04:13:08;;;;;;;23.77;20.53;;;18.30;99.90;;;;;;5071979;28;20454;-69
2021/07/27 04:15:44;;;;;;;23.17;20.90;;;18.30;99.90;;;;;;5072421;28;20463;-69
2021/07/27 04:18:11;;;;;;;22.23;19.93;;;18.30;99.90;;;;;;5072424;28;20451;-68
2021/07/27 04:20:38;;;;;;;21.73;19.43;;;18.40;99.90;;;;;;5072417;28;20930;-69
2021/07/27 04:23:05;;;;;;;20.93;18.60;;;18.40;99.90;;;;;;5072821;28;20482;-68
2021/07/27 04:25:33;;;;;;;21.10;18.37;;;18.40;99.90;;;;;;5072750;28;20521;-69
2021/07/27 04:28:00;;;;;;;21.83;19.60;;;18.40;99.90;;;;;;5074389;28;20474;-69
2021/07/27 04:30:27;;;;;;;20.70;18.50;;;18.40;99.90;;;;;;5072828;28;20454;-68
2021/07/27 04:32:54;;;;;;;20.40;18.30;;;18.40;99.90;;;;;;5053098;28;20451;-69
2021/07/27 04:35:20;;;;;;;19.53;17.63;;;18.50;99.90;;;;;;5055227;28;20448;-70
2021/07/27 04:37:47;;;;;;;24.00;17.57;;;18.50;99.90;;;;;;5055703;28;20919;-70
2021/07/27 04:40:14;;;;;;;18.50;16.60;;;18.60;99.90;;;;;;5056039;28;20483;-70
2021/07/27 04:42:43;;;;;;;20.40;16.60;;;18.70;99.90;;;;;;5074192;28;20471;-69
2021/07/27 04:45:11;;;;;;;19.13;17.27;;;18.80;99.90;;;;;;5076022;28;20446;-68
2021/07/27 04:47:37;;;;;;;19.23;15.63;;;19.00;99.90;;;;;;5076646;28;21036;-69
2021/07/27 04:50:05;;;;;;;19.43;17.60;;;19.10;99.90;;;;;;5076862;28;20473;-68
2021/07/27 04:52:32;;;;;;;17.13;15.43;;;19.20;99.90;;;;;;5075128;28;20930;-68
2021/07/27 04:54:59;;;;;;;18.63;16.37;;;19.40;99.90;;;;;;5080045;28;20488;-70
2021/07/27 04:57:25;;;;;;;18.63;16.63;;;19.40;99.90;;;;;;5081414;28;20459;-71
2021/07/27 04:59:53;;;;;;;17.53;15.80;;;19.50;99.90;;;;;;5078723;28;20455;-69
2021/07/27 05:02:21;;;;;;;17.43;15.83;;;19.50;99.90;;;;;;5075751;28;20444;-70
2021/07/27 05:04:48;;;;;;;16.67;15.30;;;19.50;99.90;;;;;;5075235;28;20448;-70
2021/07/27 05:07:14;;;;;;;18.20;16.37;;;19.50;99.90;;;;;;5077293;28;20475;-68
2021/07/27 05:09:41;;;;;;;19.07;17.37;;;19.40;99.90;;;;;;5075174;28;20489;-69
2021/07/27 05:12:08;;;;;;;18.27;16.47;;;19.40;99.90;;;;;;5075561;28;20451;-70
2021/07/27 05:14:35;;;;;;;15.93;14.60;;;19.40;99.90;;;;;;5076575;28;20524;-69
2021/07/27 05:17:12;;;;;;;16.60;15.10;;;19.40;99.90;;;;;;5075482;28;20482;-70
2021/07/27 05:19:53;;;;;;;18.13;16.40;;;19.50;99.90;;;;;;5076316;28;20466;-69
2021/07/27 05:22:22;;;;;;;18.63;17.00;;;19.50;99.90;;;;;;5075788;28;20447;-70
2021/07/27 05:24:50;;;;;;;15.70;14.40;;;19.50;99.90;;;;;;5076472;28;20449;-69
2021/07/27 05:27:16;;;;;;;16.70;15.23;;;19.60;99.90;;;;;;5075370;28;20470;-71
2021/07/27 05:29:43;;;;;;;17.23;15.53;;;19.60;99.90;;;;;;5075383;28;20481;-71
2021/07/27 05:32:11;;;;;;;17.43;16.17;;;19.70;99.90;;;;;;5075174;28;20490;-70
2021/07/27 05:34:38;;;;;;;15.63;14.50;;;19.80;99.90;;;;;;5075618;28;20443;-70
2021/07/27 05:37:04;;;;;;;17.57;16.17;;;20.00;99.90;;;;;;5075567;28;20478;-70
2021/07/27 05:39:31;;;;;;;16.60;15.53;;;20.20;99.90;;;;;;5075879;28;20455;-70
2021/07/27 05:41:58;;;;;;;17.67;16.27;;;20.40;99.90;;;;;;5075554;28;20451;-71
2021/07/27 05:44:25;;;;;;;17.90;16.80;;;20.40;99.90;;;;;;5075524;28;20447;-70
2021/07/27 05:46:53;;;;;;;18.40;17.30;;;20.50;99.90;;;;;;5076008;28;20493;-70
2021/07/27 05:49:21;;;;;;;20.63;18.97;;;20.40;99.90;;;;;;5076367;28;20479;-71
2021/07/27 05:51:48;;;;;;;20.33;19.03;;;20.40;99.90;;;;;;5076843;28;20459;-70
2021/07/27 05:54:14;;;;;;;20.23;18.93;;;20.40;99.90;;;;;;5075931;28;20443;-70
2021/07/27 05:56:41;;;;;;;19.97;18.57;;;20.40;99.90;;;;;;5075018;28;20478;-70
2021/07/27 05:59:08;;;;;;;20.27;18.60;;;20.40;99.90;;;;;;5075682;28;20501;-71
2021/07/27 06:01:34;;;;;;;19.50;18.30;;;20.50;99.90;;;;;;5075753;28;20439;-70
2021/07/27 06:04:01;;;;;;;19.93;18.63;;;20.50;99.90;;;;;;5075886;28;20442;-71
2021/07/27 06:06:32;;;;;;;19.93;18.53;;;20.60;99.90;;;;;;5075149;28;20482;-70
2021/07/27 06:09:00;;;;;;;21.07;19.20;;;20.60;99.90;;;;;;5075810;28;20556;-71
2021/07/27 06:11:27;;;;;;;21.20;19.83;;;20.80;99.90;;;;;;5075595;28;20505;-69
2021/07/27 06:13:54;;;;;;;20.20;18.87;;;21.00;99.90;;;;;;5076556;28;20451;-70
2021/07/27 06:16:20;;;;;;;21.70;20.60;;;21.10;99.90;;;;;;5076367;28;20455;-70
2021/07/27 06:18:47;;;;;;;21.43;20.23;;;21.10;99.90;;;;;;5075487;28;20435;-71
2021/07/27 06:21:14;;;;;;;20.70;19.60;;;21.20;99.90;;;;;;5074022;28;20443;-70
2021/07/27 06:23:42;;;;;;;21.50;20.00;;;21.40;99.90;;;;;;5074162;28;20443;-71
2021/07/27 06:26:08;;;;;;;21.73;20.43;;;21.70;99.90;;;;;;5073382;28;20468;-70
2021/07/27 06:28:36;;;;;;;21.33;20.13;;;21.80;99.90;;;;;;5073888;28;20876;-71
2021/07/27 06:31:04;;;;;;;22.40;21.10;;;21.90;99.90;;;;;;5073521;28;20447;-70
2021/07/27 06:33:31;;;;;;;21.27;19.93;;;21.90;99.90;;;;;;5073646;28;20451;-71
2021/07/27 06:35:58;;;;;;;20.77;19.57;;;22.10;99.90;;;;;;5074275;28;20463;-71
2021/07/27 06:38:25;;;;;;;20.63;19.63;;;22.10;99.90;;;;;;5074345;28;20642;-71
2021/07/27 06:40:53;;;;;;;21.03;19.90;;;22.30;99.90;;;;;;5074060;28;20489;-71
2021/07/27 06:43:19;;;;;;;21.40;20.10;;;22.40;99.90;;;;;;5074576;28;20818;-72
2021/07/27 06:45:53;;;;;;;21.57;20.30;;;22.60;99.90;;;;;;5076192;28;20519;-71
2021/07/27 06:48:19;;;;;;;22.47;21.27;;;22.70;99.90;;;;;;5075408;28;20506;-71
2021/07/27 06:50:46;;;;;;;21.60;20.60;;;22.70;99.90;;;;;;5074017;28;20952;-71
2021/07/27 06:53:13;;;;;;;22.50;21.30;;;22.80;99.90;;;;;;5073756;28;20459;-71
2021/07/27 06:55:39;;;;;;;23.37;21.97;;;22.70;99.90;;;;;;5075354;28;20475;-71
2021/07/27 06:58:07;;;;;;;24.03;22.70;;;22.70;99.90;;;;;;5077032;28;20440;-71
2021/07/27 07:00:34;;;;;;;24.23;22.83;;;22.70;99.90;;;;;;5076702;28;20435;-71
2021/07/27 07:03:01;;;;;;;22.93;21.40;;;22.80;99.90;;;;;;5077167;28;20447;-71
2021/07/27 07:05:28;;;;;;;23.57;22.10;;;23.00;99.90;;;;;;5076927;28;20446;-71
2021/07/27 07:07:55;;;;;;;23.60;22.07;;;23.10;99.90;;;;;;5077085;28;20451;-70
2021/07/27 07:10:22;;;;;;;22.73;21.53;;;23.10;99.90;;;;;;5076138;28;20845;-71
2021/07/27 07:12:49;;;;;;;22.97;21.77;;;22.90;99.90;;;;;;5073863;28;20447;-71
2021/07/27 07:15:17;;;;;;;22.63;21.33;;;22.70;99.90;;;;;;5073604;28;20862;-71
2021/07/27 07:17:44;;;;;;;23.87;22.50;;;22.80;99.90;;;;;;5073579;28;20856;-71
2021/07/27 07:20:11;;;;;;;22.80;21.40;;;22.90;99.90;;;;;;5074341;28;20446;-71
2021/07/27 07:22:38;;;;;;;23.00;21.80;;;23.00;99.90;;;;;;5074438;28;20451;-71
2021/07/27 07:25:06;;;;;;;23.70;22.20;;;23.20;99.90;;;;;;5075710;28;20443;-69
2021/07/27 07:27:33;;;;;;;23.00;21.80;;;23.20;99.90;;;;;;5076170;28;20463;-70
2021/07/27 07:29:59;;;;;;;23.77;22.53;;;23.40;99.90;;;;;;5076805;28;20483;-71
2021/07/27 07:32:28;;;;;;;23.73;22.40;;;23.60;99.90;;;;;;5075834;28;20455;-71
2021/07/27 07:34:55;;;;;;;22.77;21.67;;;23.70;99.90;;;;;;5075916;28;20814;-71
2021/07/27 07:37:21;;;;;;;23.60;22.40;;;24.00;99.90;;;;;;5075526;28;20467;-70
2021/07/27 07:39:48;;;;;;;23.87;22.67;;;24.10;99.90;;;;;;5076454;28;20825;-70
2021/07/27 07:42:14;;;;;;;23.30;22.10;;;24.10;99.90;;;;;;5080555;28;20446;-71
2021/07/27 07:44:41;;;;;;;24.67;23.17;;;24.20;99.90;;;;;;5078571;28;20451;-71
2021/07/27 07:47:08;;;;;;;22.83;21.43;;;24.20;99.90;;;;;;5075915;28;20486;-69
2021/07/27 07:49:36;;;;;;;23.80;22.40;;;24.10;99.90;;;;;;5075970;28;20483;-70
2021/07/27 07:52:03;;;;;;;24.37;23.07;;;24.10;99.90;;;;;;5075667;28;20451;-71
2021/07/27 07:54:32;;;;;;;24.67;23.17;;;24.10;99.90;;;;;;5075808;28;20454;-71
2021/07/27 07:56:58;;;;;;;22.83;21.73;;;24.10;99.90;;;;;;5077057;28;20554;-71
2021/07/27 07:59:25;;;;;;;25.27;23.67;;;24.10;99.90;;;;;;5077426;28;20443;-71
2021/07/27 08:01:56;;;;;;;22.97;21.57;;;24.10;99.90;;;;;;5076054;28;20448;-72
2021/07/27 08:04:24;;;;;;;23.67;22.37;;;24.00;99.90;;;;;;5075414;28;20454;-70
2021/07/27 08:06:53;;;;;;;25.00;23.40;;;24.00;99.90;;;;;;5076944;28;20905;-71
2021/07/27 08:09:19;;;;;;;23.03;21.83;;;24.00;99.90;;;;;;5078798;28;20490;-71
2021/07/27 08:11:46;;;;;;;23.63;22.43;;;24.20;99.90;;;;;;5079376;28;20443;-71
2021/07/27 08:14:13;;;;;;;24.17;22.70;;;24.20;99.90;;;;;;5079779;28;20878;-69
2021/07/27 08:16:40;;;;;;;23.90;22.70;;;24.50;99.90;;;;;;5080192;28;20966;-71
2021/07/27 08:19:06;;;;;;;23.93;22.63;;;24.70;99.90;;;;;;5080239;28;20450;-71
2021/07/27 08:21:33;;;;;;;23.80;22.50;;;24.80;99.90;;;;;;5080049;28;20453;-70
2021/07/27 08:24:01;;;;;;;24.37;23.07;;;24.80;99.90;;;;;;5081668;28;20447;-70
2021/07/27 08:26:28;;;;;;;24.37;23.17;;;25.00;99.90;;;;;;5079252;28;20501;-70
2021/07/27 08:28:55;;;;;;;24.70;23.20;;;25.20;99.90;;;;;;5078109;28;20502;-71
2021/07/27 08:31:21;;;;;;;25.87;24.30;;;25.20;99.90;;;;;;5079123;28;20443;-71
2021/07/27 08:33:48;;;;;;;24.20;22.80;;;25.30;99.90;;;;;;5077582;28;20451;-70
2021/07/27 08:36:15;;;;;;;24.97;23.67;;;25.30;99.90;;;;;;5078914;28;20466;-71
2021/07/27 08:38:41;;;;;;;25.20;23.80;;;25.20;99.90;;;;;;5078395;28;20443;-71
2021/07/27 08:41:10;;;;;;;25.13;23.83;;;25.10;99.90;;;;;;5078337;28;20451;-69
2021/07/27 08:43:36;;;;;;;24.27;22.87;;;25.00;99.90;;;;;;5079604;28;20478;-71
2021/07/27 08:46:04;;;;;;;26.00;24.27;;;24.90;99.90;;;;;;5077855;28;20459;-71
2021/07/27 08:48:31;;;;;;;24.93;23.60;;;25.00;99.90;;;;;;5079241;28;20942;-70
2021/07/27 08:50:58;;;;;;;24.87;23.57;;;25.20;99.90;;;;;;5076287;28;20893;-71
2021/07/27 08:53:25;;;;;;;24.70;23.40;;;25.30;99.90;;;;;;5074828;28;20504;-70
2021/07/27 08:55:52;;;;;;;24.50;23.20;;;25.50;99.90;;;;;;5075322;28;20475;-71
2021/07/27 08:58:20;;;;;;;25.10;23.70;;;25.40;99.90;;;;;;5076194;28;20459;-69
2021/07/27 09:00:47;;;;;;;25.73;24.23;;;25.20;99.90;;;;;;5075897;28;20829;-72
2021/07/27 09:03:17;;;;;;;24.93;23.63;;;25.00;99.90;;;;;;5076726;28;20451;-71
2021/07/27 09:08:13;;;;;;;24.97;23.57;;;24.90;99.90;;;;;;5135938;22;20488;-77
2021/07/27 09:10:41;;;;;;;23.83;22.50;;;25.00;99.90;;;;;;5114225;28;20485;-77
2021/07/27 09:13:10;;;;;;;24.13;22.83;;;24.90;99.90;;;;;;5114331;28;20441;-75
2021/07/27 09:15:39;;;;;;;25.20;23.60;;;25.00;99.90;;;;;;5114144;28;20446;-75
2021/07/27 09:18:07;;;;;;;24.40;22.80;;;25.00;99.90;;;;;;5113325;28;20465;-75
2021/07/27 09:20:36;;;;;;;23.20;22.00;;;25.10;99.90;;;;;;5114038;28;20464;-76
2021/07/27 09:23:03;;;;;;;25.03;23.53;;;25.20;99.90;;;;;;5113957;28;20975;-76
2021/07/27 09:25:32;;;;;;;25.40;23.90;;;25.30;99.90;;;;;;5113895;28;20450;-76
2021/07/27 09:28:17;;;;;;;25.00;23.53;;;25.50;99.90;;;;;;5114123;27;20465;-76
2021/07/27 09:30:46;;;;;;;25.17;23.77;;;26.10;99.90;;;;;;5113692;28;20481;-76
2021/07/27 09:33:15;;;;;;;27.10;25.20;;;26.50;99.90;;;;;;5113603;28;20894;-73
2021/07/27 09:35:43;;;;;;;29.17;26.97;;;26.90;99.90;;;;;;5113829;27;20458;-76
2021/07/27 09:38:12;;;;;;;26.93;25.23;;;27.30;98.60;;;;;;5113361;27;21014;-77
2021/07/27 09:40:49;;;;;;;26.30;25.10;;;27.60;97.30;;;;;;5113822;28;20433;-77
2021/07/27 09:43:17;;;;;;;25.87;24.37;;;27.90;95.70;;;;;;5113717;28;20475;-77
2021/07/27 09:45:47;;;;;;;25.47;24.07;;;28.30;94.90;;;;;;5113647;28;20484;-74
2021/07/27 09:48:15;;;;;;;25.93;24.60;;;28.30;93.30;;;;;;5113610;28;20437;-74
2021/07/27 09:50:42;;;;;;;26.40;25.10;;;28.50;92.90;;;;;;5113589;28;20534;-76
2021/07/27 09:53:09;;;;;;;24.70;23.50;;;28.50;91.30;;;;;;5113317;28;20963;-76
2021/07/27 09:55:37;;;;;;;26.00;24.40;;;28.50;89.70;;;;;;5113303;27;20452;-77
2021/07/27 09:58:04;;;;;;;24.50;23.40;;;28.50;89.00;;;;;;5113733;28;20469;-76
2021/07/27 10:00:32;;;;;;;26.00;24.43;;;28.60;86.70;;;;;;5113324;28;20460;-76
2021/07/27 10:03:03;;;;;;;24.90;23.60;;;28.70;85.30;;;;;;5113129;28;20461;-74
2021/07/27 10:05:30;;;;;;;24.17;22.97;;;29.00;82.70;;;;;;5113281;28;20552;-74
2021/07/27 10:07:58;;;;;;;25.20;23.90;;;29.40;81.80;;;;;;5112764;28;20999;-75
2021/07/27 10:10:37;;;;;;;25.97;24.57;;;29.40;78.40;;;;;;5112811;28;21030;-75
2021/07/27 10:13:11;;;;;;;26.23;24.83;;;29.20;81.10;;;;;;5112633;28;20823;-75
2021/07/27 10:15:43;;;;;;;25.70;24.50;;;29.20;80.10;;;;;;5112965;28;20437;-75
2021/07/27 10:18:11;;;;;;;28.37;26.87;;;29.20;77.50;;;;;;5112741;28;21022;-75
2021/07/27 10:20:39;;;;;;;25.93;24.70;;;29.30;79.80;;;;;;5112810;28;20429;-75
2021/07/27 10:23:16;;;;;;;25.93;24.27;;;29.40;75.20;;;;;;5112539;28;20449;-75
2021/07/27 10:25:54;;;;;;;27.13;25.53;;;29.50;74.60;;;;;;5112626;28;20441;-74
2021/07/27 10:28:24;;;;;;;26.30;25.10;;;29.70;74.40;;;;;;5112593;28;20457;-74
2021/07/27 10:31:03;;;;;;;25.33;24.03;;;29.80;74.40;;;;;;5111299;28;20487;-73
2021/07/27 10:33:32;;;;;;;23.63;22.43;;;29.70;72.00;;;;;;5112350;28;20853;-74
2021/07/27 10:35:59;;;;;;;25.13;23.73;;;29.80;72.90;;;;;;5112235;28;20446;-74
2021/07/27 10:38:36;;;;;;;25.23;24.03;;;29.40;71.30;;;;;;5112318;28;20452;-74
2021/07/27 10:41:14;;;;;;;24.40;23.30;;;29.00;70.30;;;;;;5112257;28;20449;-75
2021/07/27 10:43:42;;;;;;;25.13;23.87;;;28.90;72.80;;;;;;5112318;28;20446;-76
2021/07/27 10:46:10;;;;;;;24.50;23.40;;;29.00;73.20;;;;;;5112430;28;21043;-75
2021/07/27 10:48:40;;;;;;;25.03;23.43;;;29.60;70.50;;;;;;5112172;28;20866;-75
2021/07/27 10:51:07;;;;;;;24.23;23.03;;;30.10;67.20;;;;;;5112058;28;20481;-75
2021/07/27 10:53:35;;;;;;;23.73;22.60;;;30.00;65.60;;;;;;5112031;28;20456;-76
2021/07/27 10:56:04;;;;;;;24.20;23.10;;;30.20;62.70;;;;;;5112051;28;20482;-75
2021/07/27 10:58:31;;;;;;;23.53;22.47;;;30.00;62.60;;;;;;5112049;28;20444;-75
2021/07/27 11:01:07;;;;;;;24.87;23.67;;;29.70;59.20;;;;;;5112009;28;20429;-76
2021/07/27 11:03:34;;;;;;;24.00;22.90;;;29.50;59.70;;;;;;5111978;28;20441;-75
2021/07/27 11:06:02;;;;;;;23.73;22.53;;;29.40;59.50;;;;;;5111626;27;20445;-74
2021/07/27 11:08:29;;;;;;;24.00;22.90;;;29.40;60.90;;;;;;5111905;28;20441;-75
2021/07/27 11:11:06;;;;;;;23.00;21.90;;;29.30;59.80;;;;;;5111601;28;21018;-75
2021/07/27 11:13:33;;;;;;;23.10;22.00;;;29.60;60.50;;;;;;5111759;28;20444;-75
2021/07/27 11:16:01;;;;;;;22.80;21.80;;;29.80;60.60;;;;;;5111743;28;20456;-75
2021/07/27 11:18:29;;;;;;;24.03;22.93;;;30.10;60.80;;;;;;5111799;28;20445;-76
2021/07/27 11:20:57;;;;;;;23.53;22.43;;;30.20;60.90;;;;;;5111366;28;20935;-75
2021/07/27 11:23:31;;;;;;;25.03;23.20;;;30.10;60.40;;;;;;5111745;28;20444;-75
2021/07/27 11:25:58;;;;;;;24.13;22.83;;;30.10;61.60;;;;;;5111589;28;20869;-74
2021/07/27 11:28:34;;;;;;;25.20;23.80;;;30.20;60.30;;;;;;5111699;28;20445;-74
2021/07/27 11:31:01;;;;;;;25.70;24.07;;;30.60;60.70;;;;;;5111557;28;20846;-74
2021/07/27 11:33:27;;;;;;;25.63;24.13;;;30.90;60.50;;;;;;5111590;28;20452;-75
2021/07/27 11:35:56;;;;;;;24.80;23.63;;;30.70;59.50;;;;;;5111719;28;20448;-75
2021/07/27 11:38:25;;;;;;;24.93;23.53;;;31.10;59.70;;;;;;5111686;28;20572;-74
2021/07/27 11:41:04;;;;;;;24.00;22.80;;;31.80;56.90;;;;;;5111589;28;20437;-75
2021/07/27 11:43:32;;;;;;;25.00;23.77;;;32.90;54.70;;;;;;5115707;28;20963;-75
2021/07/27 11:46:06;;;;;;;23.75;22.67;;;33.60;51.70;;;;;;5115660;28;20255;-74
2021/07/27 11:48:34;;;;;;;25.73;24.30;;;35.10;48.50;;;;;;5115645;28;20279;-74
2021/07/27 11:51:00;;;;;;;24.83;23.67;;;36.00;46.20;;;;;;5115450;28;20465;-74
2021/07/27 11:53:31;;;;;;;25.38;24.25;;;37.40;44.00;;;;;;5115500;28;20572;-74
2021/07/27 11:55:58;;;;;;;25.13;23.92;;;38.90;40.20;;;;;;5115486;28;20242;-74
2021/07/27 11:58:27;;;;;;;25.75;24.55;;;39.50;39.20;;;;;;5115561;28;20198;-75
2021/07/27 12:00:56;;;;;;;25.30;24.13;;;39.50;39.10;;;;;;5115409;28;20285;-74
2021/07/27 12:03:23;;;;;;;24.33;23.23;;;39.70;36.20;;;;;;5115347;27;20267;-76
2021/07/27 12:05:50;;;;;;;25.42;24.30;;;39.60;36.40;;;;;;5115217;28;20716;-75
2021/07/27 12:08:17;;;;;;;26.00;24.90;;;39.90;35.50;;;;;;5115404;28;20241;-74
2021/07/27 12:10:45;;;;;;;26.58;25.38;;;38.10;36.80;;;;;;5115159;28;20566;-74
2021/07/27 12:13:12;;;;;;;26.77;25.67;;;39.00;36.70;;;;;;5114992;28;20203;-74
2021/07/27 12:15:39;;;;;;;24.80;23.80;;;40.60;34.80;;;;;;5115108;28;20203;-75
2021/07/27 12:18:05;;;;;;;26.35;25.02;;;43.30;33.30;;;;;;5115125;28;20609;-75
2021/07/27 12:20:32;;;;;;;24.48;23.55;;;43.70;31.80;;;;;;5115025;28;20543;-75
2021/07/27 12:22:59;;;;;;;25.52;24.42;;;45.50;30.10;;;;;;5114717;28;20678;-75
2021/07/27 12:25:26;;;;;;;25.55;24.35;;;47.00;29.20;;;;;;5114925;27;20218;-75
2021/07/27 12:27:54;;;;;;;25.33;24.25;;;47.40;27.90;;;;;;5114816;28;20684;-75
2021/07/27 12:30:21;;;;;;;25.08;24.08;;;46.70;27.80;;;;;;5114906;28;20202;-75
2021/07/27 12:32:48;;;;;;;24.73;23.70;;;46.90;27.40;;;;;;5114665;27;20203;-75
2021/07/27 12:35:14;;;;;;;25.58;24.27;;;46.50;26.70;;;;;;5114868;28;20199;-75
2021/07/27 12:37:41;;;;;;;25.88;24.67;;;44.50;27.60;;;;;;5114650;28;20223;-75
2021/07/27 12:40:09;;;;;;;26.05;24.95;;;41.30;29.50;;;;;;5114625;28;20218;-75
2021/07/27 12:42:36;;;;;;;26.08;24.88;;;38.80;32.30;;;;;;5114448;28;20234;-75
2021/07/27 12:45:04;;;;;;;25.88;24.83;;;38.20;34.20;;;;;;5114788;28;20573;-75
2021/07/27 12:47:31;;;;;;;24.80;23.60;;;40.50;32.90;;;;;;5114495;28;20440;-75
2021/07/27 12:49:57;;;;;;;25.13;24.10;;;40.50;34.00;;;;;;5114467;28;20688;-75
2021/07/27 12:52:24;;;;;;;24.10;22.85;;;41.20;32.80;;;;;;5114225;28;20207;-75